createdAt,value
2018-11-22T00:01:55.360Z,33.87
2018-11-22T00:04:22.960Z,28.57
2018-11-22T00:06:50.614Z,27.90
2018-11-22T00:09:18.209Z,27.20
2018-11-22T00:11:45.843Z,27.23
2018-11-22T00:14:13.474Z,27.13
2018-11-22T00:16:44.095Z,26.97
2018-11-22T00:19:11.949Z,27.10
2018-11-22T00:21:39.572Z,26.50
2018-11-22T00:24:07.212Z,27.60
2018-11-22T00:26:35.017Z,25.77
2018-11-22T00:29:02.622Z,26.87
2018-11-22T00:31:30.216Z,26.90
2018-11-22T00:33:57.819Z,28.33
2018-11-22T00:36:25.392Z,26.93
2018-11-22T00:38:53.001Z,27.07
2018-11-22T00:41:20.596Z,26.27
2018-11-22T00:43:48.214Z,25.03
2018-11-22T00:46:15.863Z,27.47
2018-11-22T00:48:43.478Z,26.40
2018-11-22T00:51:11.062Z,26.60
2018-11-22T00:53:38.702Z,26.33
2018-11-22T00:56:06.323Z,27.97
2018-11-22T00:58:33.974Z,26.83
2018-11-22T01:01:01.638Z,27.00
2018-11-22T01:03:29.393Z,26.57
2018-11-22T01:05:57.117Z,27.07
2018-11-22T01:08:24.802Z,25.63
2018-11-22T01:10:52.439Z,27.77
2018-11-22T01:13:20.105Z,27.17
2018-11-22T01:15:47.868Z,27.20
2018-11-22T01:18:15.559Z,28.60
2018-11-22T01:20:43.188Z,25.97
2018-11-22T01:23:10.823Z,28.00
2018-11-22T01:25:38.452Z,27.13
2018-11-22T01:28:06.048Z,27.80
2018-11-22T01:30:33.620Z,27.60
2018-11-22T01:33:01.162Z,25.70
2018-11-22T01:35:28.751Z,27.93
2018-11-22T01:37:56.325Z,28.20
2018-11-22T01:40:24.659Z,29.07
2018-11-22T01:42:52.282Z,28.43
2018-11-22T01:45:21.293Z,27.83
2018-11-22T01:47:49.255Z,28.13
2018-11-22T01:50:17.432Z,27.83
2018-11-22T01:52:45.166Z,28.00
2018-11-22T01:55:14.064Z,28.97
2018-11-22T01:57:42.242Z,27.83
2018-11-22T02:00:15.548Z,26.93
2018-11-22T02:02:43.162Z,27.63
2018-11-22T02:05:12.548Z,28.73
2018-11-22T02:07:40.207Z,26.80
2018-11-22T02:10:10.492Z,28.10
2018-11-22T02:12:38.212Z,27.87
2018-11-22T02:15:08.826Z,27.93
2018-11-22T02:17:36.366Z,27.63
2018-11-22T02:20:10.580Z,27.60
2018-11-22T02:22:38.335Z,27.90
2018-11-22T02:25:07.497Z,26.37
2018-11-22T02:27:36.107Z,28.90
2018-11-22T02:30:11.653Z,26.63
2018-11-22T02:32:39.599Z,25.10
2018-11-22T02:35:08.239Z,27.07
2018-11-22T02:37:36.065Z,25.47
2018-11-22T02:40:04.734Z,26.17
2018-11-22T02:42:32.543Z,26.40
2018-11-22T02:45:00.210Z,26.83
2018-11-22T02:47:27.825Z,27.10
2018-11-22T02:49:55.451Z,26.37
2018-11-22T02:52:23.071Z,27.10
2018-11-22T02:54:50.768Z,27.83
2018-11-22T02:57:18.345Z,27.37
2018-11-22T02:59:45.946Z,26.43
2018-11-22T03:02:13.494Z,28.67
2018-11-22T03:04:41.146Z,28.80
2018-11-22T03:07:08.960Z,26.70
2018-11-22T03:09:36.601Z,28.13
2018-11-22T03:12:04.890Z,28.73
2018-11-22T03:14:32.482Z,26.50
2018-11-22T03:17:00.012Z,28.43
2018-11-22T03:19:27.825Z,28.33
2018-11-22T03:21:55.414Z,27.87
2018-11-22T03:24:23.197Z,27.67
2018-11-22T03:26:50.798Z,28.47
2018-11-22T03:29:18.505Z,29.93
2018-11-22T03:31:46.100Z,29.50
2018-11-22T03:34:13.668Z,29.83
2018-11-22T03:36:41.316Z,30.20
2018-11-22T03:39:09.600Z,30.50
2018-11-22T03:41:37.363Z,28.53
2018-11-22T03:44:05.154Z,30.13
2018-11-22T03:46:32.862Z,29.20
2018-11-22T03:49:00.469Z,30.80
2018-11-22T03:51:28.091Z,30.30
2018-11-22T03:53:56.004Z,32.20
2018-11-22T03:56:23.714Z,28.60
2018-11-22T03:58:54.365Z,29.43
2018-11-22T04:01:20.377Z,30.27
2018-11-22T04:03:47.996Z,31.50
2018-11-22T04:06:15.615Z,30.63
2018-11-22T04:08:43.378Z,33.10
2018-11-22T04:11:10.953Z,30.93
2018-11-22T04:13:38.534Z,31.67
2018-11-22T04:16:06.254Z,30.23
2018-11-22T04:18:33.819Z,33.37
2018-11-22T04:21:01.428Z,30.17
2018-11-22T04:23:29.201Z,30.33
2018-11-22T04:25:56.868Z,31.97
2018-11-22T04:28:24.453Z,30.57
2018-11-22T04:30:52.143Z,30.73
2018-11-22T04:33:19.781Z,29.93
2018-11-22T04:35:47.451Z,31.87
2018-11-22T04:38:15.250Z,32.17
2018-11-22T04:40:42.980Z,31.77
2018-11-22T04:43:10.789Z,30.67
2018-11-22T04:45:38.417Z,30.30
2018-11-22T04:48:06.031Z,31.23
2018-11-22T04:50:35.360Z,30.47
2018-11-22T04:53:03.233Z,29.30
2018-11-22T04:55:30.966Z,29.83
2018-11-22T04:57:58.649Z,31.40
2018-11-22T05:00:26.806Z,32.40
2018-11-22T05:02:54.427Z,32.13
2018-11-22T05:05:29.964Z,31.47
2018-11-22T05:07:57.770Z,31.87
2018-11-22T05:10:26.576Z,30.97
2018-11-22T05:12:54.570Z,30.37
2018-11-22T05:15:26.889Z,33.73
2018-11-22T05:17:54.576Z,31.20
2018-11-22T05:20:23.069Z,31.80
2018-11-22T05:22:51.244Z,32.70
2018-11-22T05:25:21.516Z,32.80
2018-11-22T05:27:49.560Z,32.33
2018-11-22T05:30:27.982Z,31.30
2018-11-22T05:32:55.927Z,32.73
2018-11-22T05:35:23.758Z,31.77
2018-11-22T05:37:51.395Z,32.07
2018-11-22T05:40:25.351Z,33.67
2018-11-22T05:42:51.540Z,33.83
2018-11-22T05:45:26.724Z,32.00
2018-11-22T05:47:55.246Z,33.83
2018-11-22T05:50:27.155Z,32.97
2018-11-22T05:52:56.418Z,32.03
2018-11-22T05:57:51.773Z,32.67
2018-11-22T06:00:24.089Z,31.27
2018-11-22T06:02:52.928Z,32.63
2018-11-22T06:05:22.271Z,33.13
2018-11-22T06:07:50.050Z,33.37
2018-11-22T06:10:19.335Z,32.60
2018-11-22T06:12:47.514Z,33.30
2018-11-22T06:15:15.558Z,33.83
2018-11-22T06:17:43.800Z,33.20
2018-11-22T06:20:19.628Z,32.83
2018-11-22T06:22:47.932Z,33.23
2018-11-22T06:25:17.487Z,33.80
2018-11-22T06:27:47.433Z,33.33
2018-11-22T06:30:26.741Z,31.50
2018-11-22T06:32:55.701Z,31.67
2018-11-22T06:35:23.665Z,34.27
2018-11-22T06:37:51.485Z,31.43
2018-11-22T06:40:19.327Z,32.10
2018-11-22T06:42:48.393Z,31.57
2018-11-22T06:45:23.883Z,32.83
2018-11-22T06:47:52.851Z,31.57
2018-11-22T06:50:21.637Z,31.43
2018-11-22T06:52:49.311Z,33.53
2018-11-22T06:55:18.407Z,32.43
2018-11-22T06:57:46.004Z,32.93
2018-11-22T07:00:15.841Z,31.57
2018-11-22T07:02:43.623Z,31.20
2018-11-22T07:05:12.055Z,32.30
2018-11-22T07:07:41.786Z,32.87
2018-11-22T07:10:09.798Z,34.00
2018-11-22T07:12:43.588Z,33.90
2018-11-22T07:15:14.931Z,33.43
2018-11-22T07:17:44.117Z,34.23
2018-11-22T07:20:19.473Z,33.60
2018-11-22T07:22:47.942Z,33.33
2018-11-22T07:25:18.212Z,32.00
2018-11-22T07:27:47.243Z,34.03
2018-11-22T07:30:15.901Z,37.38
2018-11-22T07:32:43.752Z,34.67
2018-11-22T07:35:12.339Z,32.90
2018-11-22T07:37:40.529Z,33.43
2018-11-22T07:40:17.357Z,34.70
2018-11-22T07:42:50.586Z,32.00
2018-11-22T07:45:14.446Z,31.63
2018-11-22T07:47:42.539Z,32.53
2018-11-22T07:50:12.206Z,30.37
2018-11-22T07:52:39.759Z,33.57
2018-11-22T07:55:09.319Z,32.87
2018-11-22T07:57:36.886Z,33.47
2018-11-22T08:00:11.992Z,33.93
2018-11-22T08:02:40.117Z,31.43
2018-11-22T08:05:08.542Z,32.03
2018-11-22T08:07:36.154Z,32.03
2018-11-22T08:10:05.346Z,33.77
2018-11-22T08:12:33.023Z,32.77
2018-11-22T12:16:14.730Z,28.07
2018-11-22T12:18:42.992Z,29.93
2018-11-22T12:21:11.264Z,29.07
2018-11-22T12:23:39.523Z,28.37
2018-11-22T12:26:07.779Z,28.20
2018-11-22T12:28:36.117Z,28.83
2018-11-22T12:31:06.598Z,31.00
2018-11-22T12:33:39.330Z,30.07
2018-11-22T12:36:13.415Z,31.00
2018-11-22T12:38:42.828Z,30.40
2018-11-22T12:41:11.077Z,30.47
2018-11-22T12:43:39.375Z,29.73
2018-11-22T12:46:07.678Z,29.83
2018-11-22T12:48:35.959Z,29.80
2018-11-22T12:51:04.355Z,30.60
2018-11-22T12:53:32.641Z,28.00
2018-11-22T12:56:00.894Z,27.87
2018-11-22T12:58:29.171Z,29.67
2018-11-22T13:00:58.201Z,28.93
2018-11-22T13:03:26.497Z,30.37
2018-11-22T13:05:55.896Z,28.60
2018-11-22T13:08:24.157Z,30.73
2018-11-22T13:10:52.434Z,28.97
2018-11-22T13:13:20.668Z,30.43
2018-11-22T13:15:48.893Z,30.27
2018-11-22T13:18:17.103Z,30.87
2018-11-22T13:20:45.458Z,29.27
2018-11-22T13:23:13.875Z,30.33
2018-11-22T13:25:42.104Z,28.17
2018-11-22T13:28:10.414Z,29.40
2018-11-22T13:30:38.657Z,30.73
2018-11-22T13:33:06.996Z,27.83
2018-11-22T13:35:35.337Z,30.00
2018-11-22T13:38:03.642Z,29.13
2018-11-22T13:40:32.601Z,29.97
2018-11-22T13:43:00.954Z,30.60
2018-11-22T13:45:29.249Z,29.60
2018-11-22T13:47:58.470Z,29.03
2018-11-22T13:50:28.324Z,28.43
2018-11-22T13:53:01.295Z,29.60
2018-11-22T13:55:30.351Z,29.10
2018-11-22T13:57:59.805Z,27.63
2018-11-22T14:00:29.663Z,26.67
2018-11-22T14:02:59.791Z,28.90
2018-11-22T14:05:28.238Z,27.90
2018-11-22T14:07:57.320Z,29.80
2018-11-22T14:10:25.648Z,27.87
2018-11-22T14:12:54.022Z,28.47
2018-11-22T14:15:26.505Z,28.23
2018-11-22T14:17:56.315Z,28.20
2018-11-22T14:20:29.145Z,27.87
2018-11-22T14:22:57.455Z,28.57
2018-11-22T14:25:25.704Z,28.43
2018-11-22T14:27:53.949Z,28.07
2018-11-22T14:30:30.499Z,27.80
2018-11-22T14:32:58.724Z,27.63
2018-11-22T14:35:27.180Z,26.53
2018-11-22T14:38:00.114Z,28.20
2018-11-22T14:40:29.797Z,26.87
2018-11-22T14:42:58.076Z,26.90
2018-11-22T14:45:26.983Z,27.53
2018-11-22T14:47:56.538Z,27.17
2018-11-22T14:50:32.715Z,27.07
2018-11-22T14:53:13.012Z,27.53
2018-11-22T14:55:41.248Z,27.53
2018-11-22T14:58:09.921Z,26.00
2018-11-22T15:00:38.201Z,28.30
2018-11-22T15:03:06.594Z,27.57
2018-11-22T15:05:35.122Z,28.27
2018-11-22T15:08:03.428Z,27.60
2018-11-22T15:10:31.662Z,27.47
2018-11-22T15:12:59.932Z,28.17
2018-11-22T15:15:28.863Z,28.13
2018-11-22T15:17:57.126Z,26.67
2018-11-22T15:20:25.412Z,28.37
2018-11-22T15:22:54.206Z,28.37
2018-11-22T15:25:23.905Z,27.87
2018-11-22T15:27:52.294Z,27.13
2018-11-22T15:30:24.016Z,25.93
2018-11-22T15:32:52.278Z,26.83
2018-11-22T15:35:21.806Z,27.40
2018-11-22T15:37:50.484Z,26.73
2018-11-22T15:40:20.177Z,27.17
2018-11-22T15:42:49.786Z,27.73
2018-11-22T15:45:19.520Z,28.10
2018-11-22T15:47:48.080Z,28.30
2018-11-22T15:50:20.688Z,26.73
2018-11-22T15:52:49.039Z,26.23
2018-11-22T15:55:20.991Z,27.10
2018-11-22T15:57:47.318Z,26.70
2018-11-22T16:00:24.088Z,28.03
2018-11-22T16:02:53.000Z,26.47
2018-11-22T16:05:21.803Z,26.67
2018-11-22T16:07:50.076Z,26.50
2018-11-22T16:10:26.312Z,28.00
2018-11-22T16:12:52.475Z,25.13
2018-11-22T16:15:31.513Z,26.00
2018-11-22T16:17:59.762Z,27.80
2018-11-22T16:20:28.024Z,27.13
2018-11-22T16:22:56.355Z,25.70
2018-11-22T16:25:24.593Z,25.80
2018-11-22T16:27:52.903Z,26.67
2018-11-22T16:30:25.750Z,26.27
2018-11-22T16:32:54.038Z,27.43
2018-11-22T16:35:23.013Z,26.80
2018-11-22T16:37:51.294Z,27.27
2018-11-22T16:40:28.111Z,25.87
2018-11-22T16:42:57.532Z,27.30
2018-11-22T16:45:29.918Z,26.27
2018-11-22T16:47:59.598Z,25.23
2018-11-22T16:50:28.949Z,27.00
2018-11-22T16:52:57.176Z,25.57
2018-11-22T16:55:26.026Z,26.27
2018-11-22T16:57:55.125Z,26.87
2018-11-22T17:00:25.746Z,27.60
2018-11-22T17:02:55.218Z,27.63
2018-11-22T17:05:23.929Z,27.67
2018-11-22T17:07:52.201Z,26.87
2018-11-22T17:10:21.971Z,27.53
2018-11-22T17:12:51.562Z,27.23
2018-11-22T17:15:21.057Z,26.83
2018-11-22T17:17:49.933Z,26.80
2018-11-22T17:20:19.246Z,26.10
2018-11-22T17:22:51.711Z,26.17
2018-11-22T17:25:21.369Z,27.00
2018-11-22T17:27:51.149Z,27.30
2018-11-22T17:30:21.216Z,25.43
2018-11-22T17:32:50.545Z,27.20
2018-11-22T17:35:20.371Z,26.20
2018-11-22T17:37:48.757Z,29.13
2018-11-22T17:40:20.790Z,29.07
2018-11-22T17:42:49.123Z,28.67
2018-11-22T17:45:25.751Z,28.43
2018-11-22T17:47:54.028Z,27.30
2018-11-22T17:50:24.695Z,27.47
2018-11-22T17:52:52.940Z,28.27
2018-11-22T17:55:22.519Z,28.60
2018-11-22T17:57:50.801Z,26.90
2018-11-22T18:00:21.082Z,26.57
2018-11-22T18:02:50.513Z,28.23
2018-11-22T18:05:18.810Z,28.80
2018-11-22T18:07:47.013Z,29.20
2018-11-22T18:10:16.911Z,30.03
2018-11-22T18:12:46.014Z,30.10
2018-11-22T18:15:15.615Z,29.10
2018-11-22T18:17:43.914Z,28.10
2018-11-22T18:20:16.493Z,28.10
2018-11-22T18:22:45.172Z,29.73
2018-11-22T18:25:14.761Z,29.40
2018-11-22T18:27:42.985Z,30.33
2018-11-22T18:30:16.215Z,27.87
2018-11-22T18:32:45.976Z,29.03
2018-11-22T18:35:14.689Z,28.90
2018-11-22T18:37:42.983Z,31.13
2018-11-22T18:40:16.675Z,30.10
2018-11-22T18:42:45.851Z,30.73
2018-11-22T18:45:15.542Z,30.07
2018-11-22T18:47:44.932Z,29.40
2018-11-22T18:50:17.239Z,29.50
2018-11-22T18:52:46.732Z,29.13
2018-11-22T18:55:15.094Z,30.13
2018-11-22T18:57:43.886Z,28.03
2018-11-22T19:00:19.551Z,28.50
2018-11-22T19:02:47.847Z,29.13
2018-11-22T19:05:16.773Z,29.00
2018-11-22T19:07:47.067Z,29.63
2018-11-22T19:10:17.819Z,30.03
2018-11-22T19:12:47.494Z,28.60
2018-11-22T19:15:17.454Z,29.97
2018-11-22T19:17:46.042Z,29.33
2018-11-22T19:20:20.034Z,29.33
2018-11-22T19:22:49.026Z,28.00
2018-11-22T19:25:17.972Z,29.53
2018-11-22T19:27:47.582Z,28.77
2018-11-22T19:30:21.659Z,29.30
2018-11-22T19:32:51.101Z,28.37
2018-11-22T19:35:21.015Z,30.03
2018-11-22T19:37:49.915Z,28.70
2018-11-22T19:40:22.896Z,29.00
2018-11-22T19:42:52.606Z,29.33
2018-11-22T19:45:22.404Z,30.23
2018-11-22T19:47:50.823Z,30.27
2018-11-22T19:50:20.540Z,30.57
2018-11-22T19:52:49.588Z,29.07
2018-11-22T19:55:19.214Z,30.63
2018-11-22T19:57:49.419Z,29.40
2018-11-22T20:00:18.557Z,29.80
2018-11-22T20:02:47.314Z,29.13
2018-11-22T20:05:16.668Z,29.53
2018-11-22T20:07:46.480Z,29.10
2018-11-22T20:10:20.323Z,31.27
2018-11-22T20:12:49.689Z,29.13
2018-11-22T20:15:18.857Z,29.83
2018-11-22T20:17:48.134Z,30.17
2018-11-22T20:20:20.331Z,30.80
2018-11-22T20:22:53.037Z,30.30
2018-11-22T20:25:21.280Z,28.10
2018-11-22T20:27:51.121Z,29.53
2018-11-22T20:30:24.136Z,28.13
2018-11-22T20:32:54.566Z,30.30
2018-11-22T20:35:23.100Z,28.17
2018-11-22T20:37:52.113Z,28.33
2018-11-22T20:40:24.532Z,28.47
2018-11-22T20:42:53.096Z,29.07
2018-11-22T20:45:23.231Z,29.93
2018-11-22T20:47:53.535Z,29.40
2018-11-22T20:50:23.110Z,28.27
2018-11-22T20:52:52.200Z,29.13
2018-11-22T20:55:23.982Z,28.23
2018-11-22T20:57:53.713Z,30.07
2018-11-22T21:00:23.317Z,26.83
2018-11-22T21:02:51.570Z,29.03
2018-11-22T21:05:20.550Z,28.43
2018-11-22T21:07:48.930Z,28.97
2018-11-22T21:10:18.796Z,28.17
2018-11-22T21:12:47.078Z,29.40
2018-11-22T21:15:25.797Z,29.47
2018-11-22T21:17:55.851Z,29.03
2018-11-22T21:20:28.214Z,25.40
2018-11-22T21:22:57.043Z,27.87
2018-11-22T21:25:25.920Z,28.20
2018-11-22T21:27:55.025Z,27.90
2018-11-22T21:30:26.259Z,28.00
2018-11-22T21:32:54.858Z,27.93
2018-11-22T21:35:23.195Z,28.07
2018-11-22T21:37:52.798Z,26.57
2018-11-22T21:40:21.626Z,28.33
2018-11-22T21:42:49.898Z,28.20
2018-11-22T21:45:19.614Z,27.43
2018-11-22T21:47:47.846Z,28.03
2018-11-22T21:50:17.569Z,29.10
2018-11-22T21:52:45.757Z,27.13
2018-11-22T21:55:16.130Z,27.97
2018-11-22T21:57:45.367Z,27.63
2018-11-22T22:00:24.997Z,28.40
2018-11-22T22:02:57.255Z,28.20
2018-11-22T22:05:25.526Z,26.63
2018-11-22T22:07:53.761Z,28.30
2018-11-22T22:10:21.983Z,27.73
2018-11-22T22:12:50.383Z,28.13
2018-11-22T22:15:20.170Z,28.00
2018-11-22T22:17:48.711Z,26.33
2018-11-22T22:20:19.247Z,27.30
2018-11-22T22:22:47.522Z,29.60
2018-11-22T22:25:16.990Z,26.50
2018-11-22T22:27:45.842Z,27.27
2018-11-22T22:30:18.694Z,27.23
2018-11-22T22:32:47.839Z,28.10
2018-11-22T22:35:16.014Z,26.77
2018-11-22T22:37:44.298Z,28.27
2018-11-22T22:40:16.748Z,26.73
2018-11-22T22:42:45.858Z,26.53
2018-11-22T22:45:14.989Z,26.03
2018-11-22T22:47:43.979Z,26.63
2018-11-22T22:50:15.590Z,28.23
2018-11-22T22:52:44.416Z,27.40
2018-11-22T22:55:13.062Z,26.50
2018-11-22T22:57:41.589Z,28.77
2018-11-22T23:00:23.614Z,28.07
2018-11-22T23:02:53.236Z,27.30
2018-11-22T23:05:21.983Z,28.10
2018-11-22T23:07:50.316Z,26.80
2018-11-22T23:10:19.258Z,27.50
2018-11-22T23:12:47.455Z,27.53
2018-11-22T23:15:16.513Z,27.10
2018-11-22T23:17:44.745Z,28.00
2018-11-22T23:20:16.105Z,27.43
2018-11-22T23:22:44.975Z,27.40
2018-11-22T23:25:13.891Z,28.30
2018-11-22T23:27:42.119Z,25.80
2018-11-22T23:30:14.047Z,29.87
2018-11-22T23:32:43.259Z,27.17
2018-11-22T23:35:11.441Z,27.53
2018-11-22T23:37:39.813Z,26.90
2018-11-22T23:40:11.380Z,29.00
2018-11-22T23:42:40.415Z,28.23
2018-11-22T23:45:10.563Z,27.70
2018-11-22T23:47:39.386Z,28.47
2018-11-22T23:50:11.875Z,28.10
2018-11-22T23:52:40.547Z,27.77
2018-11-22T23:55:08.982Z,28.40
2018-11-22T23:57:37.397Z,29.17
